sensor_id;sensor_type;location;lat;lon;timestamp;P1;durP1;ratioP1;P2;durP2;ratioP2
7361;SDS011;3721;44.490;11.220;2022-11-15T00:00:09;40.63;;;21.90;;
7361;SDS011;3721;44.490;11.220;2022-11-15T00:02:35;38.20;;;22.90;;
7361;SDS011;3721;44.490;11.220;2022-11-15T00:05:01;43.93;;;23.83;;
7361;SDS011;3721;44.490;11.220;2022-11-15T00:07:26;42.67;;;23.83;;
7361;SDS011;3721;44.490;11.220;2022-11-15T00:09:52;43.00;;;23.70;;
7361;SDS011;3721;44.490;11.220;2022-11-15T00:12:18;44.67;;;23.43;;
7361;SDS011;3721;44.490;11.220;2022-11-15T00:14:43;44.27;;;25.10;;
7361;SDS011;3721;44.490;11.220;2022-11-15T00:17:09;48.37;;;24.90;;
7361;SDS011;3721;44.490;11.220;2022-11-15T00:19:34;40.60;;;23.10;;
7361;SDS011;3721;44.490;11.220;2022-11-15T00:22:00;44.30;;;24.13;;
7361;SDS011;3721;44.490;11.220;2022-11-15T00:24:26;43.87;;;24.47;;
7361;SDS011;3721;44.490;11.220;2022-11-15T00:26:51;45.40;;;23.90;;
7361;SDS011;3721;44.490;11.220;2022-11-15T00:29:17;44.03;;;24.70;;
7361;SDS011;3721;44.490;11.220;2022-11-15T00:31:43;42.23;;;22.60;;
7361;SDS011;3721;44.490;11.220;2022-11-15T00:34:09;44.10;;;23.17;;
7361;SDS011;3721;44.490;11.220;2022-11-15T00:36:35;43.30;;;23.50;;
7361;SDS011;3721;44.490;11.220;2022-11-15T00:39:03;46.10;;;24.37;;
7361;SDS011;3721;44.490;11.220;2022-11-15T00:41:30;47.03;;;25.00;;
7361;SDS011;3721;44.490;11.220;2022-11-15T00:43:56;48.03;;;25.20;;
7361;SDS011;3721;44.490;11.220;2022-11-15T00:46:22;44.73;;;22.43;;
7361;SDS011;3721;44.490;11.220;2022-11-15T00:48:47;40.07;;;22.70;;
7361;SDS011;3721;44.490;11.220;2022-11-15T00:51:13;50.93;;;24.27;;
7361;SDS011;3721;44.490;11.220;2022-11-15T00:53:39;45.07;;;22.83;;
7361;SDS011;3721;44.490;11.220;2022-11-15T00:56:04;47.80;;;24.23;;
7361;SDS011;3721;44.490;11.220;2022-11-15T00:58:56;43.30;;;23.97;;
7361;SDS011;3721;44.490;11.220;2022-11-15T01:01:21;39.83;;;21.87;;
7361;SDS011;3721;44.490;11.220;2022-11-15T01:03:47;38.23;;;21.27;;
7361;SDS011;3721;44.490;11.220;2022-11-15T01:06:13;47.43;;;26.80;;
7361;SDS011;3721;44.490;11.220;2022-11-15T01:08:39;47.90;;;25.03;;
7361;SDS011;3721;44.490;11.220;2022-11-15T01:11:10;51.50;;;25.80;;
7361;SDS011;3721;44.490;11.220;2022-11-15T01:13:37;45.50;;;25.27;;
7361;SDS011;3721;44.490;11.220;2022-11-15T01:16:10;48.97;;;24.97;;
7361;SDS011;3721;44.490;11.220;2022-11-15T01:18:39;45.33;;;23.77;;
7361;SDS011;3721;44.490;11.220;2022-11-15T01:21:06;46.90;;;21.53;;
7361;SDS011;3721;44.490;11.220;2022-11-15T01:23:36;48.33;;;24.13;;
7361;SDS011;3721;44.490;11.220;2022-11-15T01:26:02;42.90;;;23.40;;
7361;SDS011;3721;44.490;11.220;2022-11-15T01:28:34;46.63;;;24.17;;
7361;SDS011;3721;44.490;11.220;2022-11-15T01:31:01;46.20;;;24.03;;
7361;SDS011;3721;44.490;11.220;2022-11-15T01:33:29;44.07;;;24.17;;
7361;SDS011;3721;44.490;11.220;2022-11-15T01:35:55;46.10;;;23.60;;
7361;SDS011;3721;44.490;11.220;2022-11-15T01:38:21;48.10;;;25.87;;
7361;SDS011;3721;44.490;11.220;2022-11-15T01:40:47;49.63;;;25.13;;
7361;SDS011;3721;44.490;11.220;2022-11-15T01:43:23;44.53;;;22.90;;
7361;SDS011;3721;44.490;11.220;2022-11-15T01:46:01;49.63;;;24.40;;
7361;SDS011;3721;44.490;11.220;2022-11-15T01:48:46;46.70;;;24.60;;
7361;SDS011;3721;44.490;11.220;2022-11-15T01:51:13;43.37;;;24.10;;
7361;SDS011;3721;44.490;11.220;2022-11-15T01:53:41;41.17;;;22.17;;
7361;SDS011;3721;44.490;11.220;2022-11-15T01:56:12;43.80;;;23.03;;
7361;SDS011;3721;44.490;11.220;2022-11-15T01:58:41;43.83;;;20.87;;
7361;SDS011;3721;44.490;11.220;2022-11-15T02:01:09;43.80;;;23.23;;
7361;SDS011;3721;44.490;11.220;2022-11-15T02:03:37;38.27;;;21.00;;
7361;SDS011;3721;44.490;11.220;2022-11-15T02:06:17;45.43;;;23.37;;
7361;SDS011;3721;44.490;11.220;2022-11-15T02:08:44;44.50;;;22.20;;
7361;SDS011;3721;44.490;11.220;2022-11-15T02:11:10;43.00;;;22.23;;
7361;SDS011;3721;44.490;11.220;2022-11-15T02:13:35;46.47;;;23.30;;
7361;SDS011;3721;44.490;11.220;2022-11-15T02:16:09;38.40;;;21.63;;
7361;SDS011;3721;44.490;11.220;2022-11-15T02:19:35;43.83;;;22.60;;
7361;SDS011;3721;44.490;11.220;2022-11-15T02:30:33;41.33;;;21.80;;
7361;SDS011;3721;44.490;11.220;2022-11-15T02:33:23;45.30;;;21.73;;
7361;SDS011;3721;44.490;11.220;2022-11-15T02:38:59;38.67;;;21.53;;
7361;SDS011;3721;44.490;11.220;2022-11-15T02:41:42;39.23;;;20.30;;
7361;SDS011;3721;44.490;11.220;2022-11-15T02:44:33;40.60;;;22.27;;
7361;SDS011;3721;44.490;11.220;2022-11-15T02:47:04;39.93;;;21.57;;
7361;SDS011;3721;44.490;11.220;2022-11-15T02:49:47;37.83;;;20.70;;
7361;SDS011;3721;44.490;11.220;2022-11-15T02:52:19;39.07;;;20.77;;
7361;SDS011;3721;44.490;11.220;2022-11-15T02:54:55;41.03;;;20.33;;
7361;SDS011;3721;44.490;11.220;2022-11-15T03:00:12;38.03;;;19.30;;
7361;SDS011;3721;44.490;11.220;2022-11-15T03:02:42;35.93;;;20.73;;
7361;SDS011;3721;44.490;11.220;2022-11-15T03:08:36;37.10;;;19.43;;
7361;SDS011;3721;44.490;11.220;2022-11-15T03:11:08;35.07;;;20.13;;
7361;SDS011;3721;44.490;11.220;2022-11-15T03:13:58;36.47;;;18.13;;
7361;SDS011;3721;44.490;11.220;2022-11-15T03:16:42;35.00;;;19.17;;
7361;SDS011;3721;44.490;11.220;2022-11-15T03:19:27;34.07;;;19.30;;
7361;SDS011;3721;44.490;11.220;2022-11-15T03:22:04;35.07;;;18.67;;
7361;SDS011;3721;44.490;11.220;2022-11-15T03:24:34;38.00;;;20.37;;
7361;SDS011;3721;44.490;11.220;2022-11-15T03:27:01;36.47;;;20.00;;
7361;SDS011;3721;44.490;11.220;2022-11-15T03:29:32;36.83;;;20.50;;
7361;SDS011;3721;44.490;11.220;2022-11-15T03:32:04;39.73;;;20.37;;
7361;SDS011;3721;44.490;11.220;2022-11-15T03:34:41;33.50;;;20.67;;
7361;SDS011;3721;44.490;11.220;2022-11-15T03:40:36;35.40;;;19.97;;
7361;SDS011;3721;44.490;11.220;2022-11-15T03:46:01;34.20;;;19.03;;
7361;SDS011;3721;44.490;11.220;2022-11-15T03:48:33;36.43;;;18.23;;
7361;SDS011;3721;44.490;11.220;2022-11-15T03:51:06;32.53;;;19.53;;
7361;SDS011;3721;44.490;11.220;2022-11-15T03:53:32;34.40;;;19.43;;
7361;SDS011;3721;44.490;11.220;2022-11-15T03:55:57;31.50;;;17.50;;
7361;SDS011;3721;44.490;11.220;2022-11-15T03:58:23;36.90;;;19.10;;
7361;SDS011;3721;44.490;11.220;2022-11-15T04:00:49;35.27;;;18.90;;
7361;SDS011;3721;44.490;11.220;2022-11-15T04:03:14;33.80;;;18.37;;
7361;SDS011;3721;44.490;11.220;2022-11-15T04:05:40;36.43;;;19.57;;
7361;SDS011;3721;44.490;11.220;2022-11-15T04:08:06;35.60;;;19.33;;
7361;SDS011;3721;44.490;11.220;2022-11-15T04:10:32;34.90;;;19.30;;
7361;SDS011;3721;44.490;11.220;2022-11-15T04:12:57;34.80;;;16.87;;
7361;SDS011;3721;44.490;11.220;2022-11-15T04:15:23;32.47;;;17.90;;
7361;SDS011;3721;44.490;11.220;2022-11-15T04:17:50;32.00;;;17.67;;
7361;SDS011;3721;44.490;11.220;2022-11-15T04:23:04;32.93;;;17.60;;
7361;SDS011;3721;44.490;11.220;2022-11-15T04:25:50;37.00;;;18.30;;
7361;SDS011;3721;44.490;11.220;2022-11-15T04:28:17;36.50;;;17.67;;
7361;SDS011;3721;44.490;11.220;2022-11-15T04:30:44;30.37;;;18.33;;
7361;SDS011;3721;44.490;11.220;2022-11-15T04:33:09;31.57;;;17.97;;
7361;SDS011;3721;44.490;11.220;2022-11-15T04:35:35;30.40;;;18.60;;
7361;SDS011;3721;44.490;11.220;2022-11-15T04:38:01;34.67;;;19.30;;
7361;SDS011;3721;44.490;11.220;2022-11-15T04:40:28;32.87;;;18.10;;
7361;SDS011;3721;44.490;11.220;2022-11-15T04:42:54;31.43;;;17.73;;
7361;SDS011;3721;44.490;11.220;2022-11-15T04:45:20;39.70;;;18.80;;
7361;SDS011;3721;44.490;11.220;2022-11-15T04:47:45;36.47;;;20.67;;
7361;SDS011;3721;44.490;11.220;2022-11-15T04:50:14;35.00;;;18.10;;
7361;SDS011;3721;44.490;11.220;2022-11-15T04:52:42;36.30;;;17.77;;
7361;SDS011;3721;44.490;11.220;2022-11-15T04:55:09;33.87;;;19.00;;
7361;SDS011;3721;44.490;11.220;2022-11-15T04:57:35;36.43;;;19.40;;
7361;SDS011;3721;44.490;11.220;2022-11-15T05:00:05;35.97;;;19.10;;
7361;SDS011;3721;44.490;11.220;2022-11-15T05:02:33;38.37;;;18.17;;
7361;SDS011;3721;44.490;11.220;2022-11-15T05:05:17;34.43;;;18.57;;
7361;SDS011;3721;44.490;11.220;2022-11-15T05:07:43;33.17;;;17.87;;
7361;SDS011;3721;44.490;11.220;2022-11-15T05:10:08;34.47;;;17.87;;
7361;SDS011;3721;44.490;11.220;2022-11-15T05:12:34;32.57;;;18.43;;
7361;SDS011;3721;44.490;11.220;2022-11-15T05:15:00;34.53;;;17.97;;
7361;SDS011;3721;44.490;11.220;2022-11-15T05:17:26;36.67;;;19.10;;
7361;SDS011;3721;44.490;11.220;2022-11-15T05:19:51;34.07;;;19.17;;
7361;SDS011;3721;44.490;11.220;2022-11-15T05:22:17;31.70;;;16.70;;
7361;SDS011;3721;44.490;11.220;2022-11-15T05:24:43;35.03;;;19.97;;
7361;SDS011;3721;44.490;11.220;2022-11-15T05:27:09;33.63;;;17.87;;
7361;SDS011;3721;44.490;11.220;2022-11-15T05:29:35;32.97;;;18.20;;
7361;SDS011;3721;44.490;11.220;2022-11-15T05:32:00;29.30;;;17.47;;
7361;SDS011;3721;44.490;11.220;2022-11-15T05:34:27;32.00;;;17.53;;
7361;SDS011;3721;44.490;11.220;2022-11-15T05:36:53;34.20;;;18.70;;
7361;SDS011;3721;44.490;11.220;2022-11-15T05:39:19;28.60;;;16.13;;
7361;SDS011;3721;44.490;11.220;2022-11-15T05:41:49;31.07;;;17.80;;
7361;SDS011;3721;44.490;11.220;2022-11-15T05:44:22;29.83;;;17.10;;
7361;SDS011;3721;44.490;11.220;2022-11-15T05:46:49;34.83;;;17.50;;
7361;SDS011;3721;44.490;11.220;2022-11-15T05:49:19;30.27;;;17.47;;
7361;SDS011;3721;44.490;11.220;2022-11-15T05:51:47;30.80;;;17.37;;
7361;SDS011;3721;44.490;11.220;2022-11-15T05:54:14;29.00;;;16.47;;
7361;SDS011;3721;44.490;11.220;2022-11-15T05:56:42;27.90;;;15.90;;
7361;SDS011;3721;44.490;11.220;2022-11-15T05:59:08;30.97;;;17.50;;
7361;SDS011;3721;44.490;11.220;2022-11-15T06:01:35;29.50;;;16.60;;
7361;SDS011;3721;44.490;11.220;2022-11-15T06:04:02;29.50;;;15.80;;
7361;SDS011;3721;44.490;11.220;2022-11-15T06:06:28;30.33;;;17.70;;
7361;SDS011;3721;44.490;11.220;2022-11-15T06:08:54;29.67;;;16.23;;
7361;SDS011;3721;44.490;11.220;2022-11-15T06:11:19;28.83;;;16.23;;
7361;SDS011;3721;44.490;11.220;2022-11-15T06:13:45;28.60;;;15.80;;
7361;SDS011;3721;44.490;11.220;2022-11-15T06:16:10;29.23;;;16.60;;
7361;SDS011;3721;44.490;11.220;2022-11-15T06:18:36;29.50;;;16.80;;
7361;SDS011;3721;44.490;11.220;2022-11-15T06:21:03;30.97;;;16.57;;
7361;SDS011;3721;44.490;11.220;2022-11-15T06:23:31;31.47;;;16.90;;
7361;SDS011;3721;44.490;11.220;2022-11-15T06:25:58;27.70;;;16.37;;
7361;SDS011;3721;44.490;11.220;2022-11-15T06:28:27;31.70;;;17.77;;
7361;SDS011;3721;44.490;11.220;2022-11-15T06:30:54;29.20;;;16.03;;
7361;SDS011;3721;44.490;11.220;2022-11-15T06:33:20;35.77;;;18.23;;
7361;SDS011;3721;44.490;11.220;2022-11-15T06:35:45;29.93;;;16.50;;
7361;SDS011;3721;44.490;11.220;2022-11-15T06:38:11;31.37;;;17.23;;
7361;SDS011;3721;44.490;11.220;2022-11-15T06:40:37;28.97;;;16.20;;
7361;SDS011;3721;44.490;11.220;2022-11-15T06:43:04;24.27;;;14.37;;
7361;SDS011;3721;44.490;11.220;2022-11-15T06:45:31;27.37;;;15.00;;
7361;SDS011;3721;44.490;11.220;2022-11-15T06:47:57;30.00;;;17.13;;
7361;SDS011;3721;44.490;11.220;2022-11-15T06:50:23;28.23;;;15.93;;
7361;SDS011;3721;44.490;11.220;2022-11-15T06:52:49;30.90;;;15.03;;
7361;SDS011;3721;44.490;11.220;2022-11-15T06:55:15;31.20;;;15.47;;
7361;SDS011;3721;44.490;11.220;2022-11-15T06:57:48;25.50;;;14.80;;
7361;SDS011;3721;44.490;11.220;2022-11-15T07:00:15;33.87;;;16.60;;
7361;SDS011;3721;44.490;11.220;2022-11-15T07:02:42;26.43;;;13.50;;
7361;SDS011;3721;44.490;11.220;2022-11-15T07:05:08;25.17;;;14.70;;
7361;SDS011;3721;44.490;11.220;2022-11-15T07:07:34;28.07;;;15.87;;
7361;SDS011;3721;44.490;11.220;2022-11-15T07:10:00;29.67;;;15.70;;
7361;SDS011;3721;44.490;11.220;2022-11-15T07:12:25;32.23;;;16.30;;
7361;SDS011;3721;44.490;11.220;2022-11-15T07:14:51;31.97;;;16.20;;
7361;SDS011;3721;44.490;11.220;2022-11-15T07:17:16;31.73;;;16.63;;
7361;SDS011;3721;44.490;11.220;2022-11-15T07:19:42;24.77;;;14.50;;
7361;SDS011;3721;44.490;11.220;2022-11-15T07:22:08;25.53;;;13.77;;
7361;SDS011;3721;44.490;11.220;2022-11-15T07:24:33;24.07;;;14.73;;
7361;SDS011;3721;44.490;11.220;2022-11-15T07:26:59;32.63;;;14.47;;
7361;SDS011;3721;44.490;11.220;2022-11-15T07:29:25;30.57;;;16.03;;
7361;SDS011;3721;44.490;11.220;2022-11-15T07:31:50;25.07;;;15.00;;
7361;SDS011;3721;44.490;11.220;2022-11-15T07:34:16;27.37;;;16.00;;
7361;SDS011;3721;44.490;11.220;2022-11-15T07:36:42;25.17;;;15.67;;
7361;SDS011;3721;44.490;11.220;2022-11-15T07:39:07;26.73;;;16.10;;
7361;SDS011;3721;44.490;11.220;2022-11-15T07:41:33;28.90;;;16.20;;
7361;SDS011;3721;44.490;11.220;2022-11-15T07:43:59;30.20;;;18.40;;
7361;SDS011;3721;44.490;11.220;2022-11-15T07:46:25;26.83;;;15.33;;
7361;SDS011;3721;44.490;11.220;2022-11-15T07:48:51;32.63;;;17.43;;
7361;SDS011;3721;44.490;11.220;2022-11-15T07:51:16;33.00;;;16.70;;
7361;SDS011;3721;44.490;11.220;2022-11-15T07:53:42;34.77;;;17.00;;
7361;SDS011;3721;44.490;11.220;2022-11-15T07:56:09;33.30;;;16.13;;
7361;SDS011;3721;44.490;11.220;2022-11-15T07:58:35;29.33;;;15.73;;
7361;SDS011;3721;44.490;11.220;2022-11-15T08:01:04;32.30;;;16.53;;
7361;SDS011;3721;44.490;11.220;2022-11-15T08:03:31;33.83;;;17.90;;
7361;SDS011;3721;44.490;11.220;2022-11-15T08:05:57;30.53;;;18.03;;
7361;SDS011;3721;44.490;11.220;2022-11-15T08:08:23;31.40;;;16.93;;
7361;SDS011;3721;44.490;11.220;2022-11-15T08:10:48;34.77;;;18.40;;
7361;SDS011;3721;44.490;11.220;2022-11-15T08:13:14;31.07;;;17.40;;
7361;SDS011;3721;44.490;11.220;2022-11-15T08:15:40;32.37;;;16.97;;
7361;SDS011;3721;44.490;11.220;2022-11-15T08:18:09;27.67;;;16.13;;
7361;SDS011;3721;44.490;11.220;2022-11-15T08:20:36;33.97;;;17.90;;
7361;SDS011;3721;44.490;11.220;2022-11-15T08:23:03;34.77;;;18.30;;
7361;SDS011;3721;44.490;11.220;2022-11-15T08:25:30;28.17;;;17.03;;
7361;SDS011;3721;44.490;11.220;2022-11-15T08:27:58;30.67;;;16.27;;
7361;SDS011;3721;44.490;11.220;2022-11-15T08:30:25;28.93;;;17.87;;
7361;SDS011;3721;44.490;11.220;2022-11-15T08:32:52;30.27;;;18.63;;
7361;SDS011;3721;44.490;11.220;2022-11-15T08:35:18;30.27;;;16.60;;
7361;SDS011;3721;44.490;11.220;2022-11-15T08:37:45;27.07;;;15.00;;
7361;SDS011;3721;44.490;11.220;2022-11-15T08:40:11;31.93;;;16.70;;
7361;SDS011;3721;44.490;11.220;2022-11-15T08:42:38;30.70;;;17.00;;
7361;SDS011;3721;44.490;11.220;2022-11-15T08:45:05;27.03;;;16.37;;
7361;SDS011;3721;44.490;11.220;2022-11-15T08:47:31;29.87;;;16.23;;
7361;SDS011;3721;44.490;11.220;2022-11-15T08:49:57;30.10;;;16.83;;
7361;SDS011;3721;44.490;11.220;2022-11-15T08:52:23;32.30;;;18.93;;
7361;SDS011;3721;44.490;11.220;2022-11-15T08:54:49;29.47;;;17.33;;
7361;SDS011;3721;44.490;11.220;2022-11-15T08:57:15;29.37;;;18.03;;
7361;SDS011;3721;44.490;11.220;2022-11-15T08:59:40;27.70;;;16.83;;
7361;SDS011;3721;44.490;11.220;2022-11-15T09:02:06;29.53;;;17.30;;
7361;SDS011;3721;44.490;11.220;2022-11-15T09:04:36;28.73;;;16.20;;
7361;SDS011;3721;44.490;11.220;2022-11-15T09:07:02;28.07;;;16.60;;
7361;SDS011;3721;44.490;11.220;2022-11-15T09:09:27;29.97;;;17.30;;
7361;SDS011;3721;44.490;11.220;2022-11-15T09:11:53;32.13;;;17.60;;
7361;SDS011;3721;44.490;11.220;2022-11-15T09:14:18;32.13;;;17.77;;
7361;SDS011;3721;44.490;11.220;2022-11-15T09:16:44;46.70;;;17.67;;
7361;SDS011;3721;44.490;11.220;2022-11-15T09:19:10;32.40;;;17.87;;
7361;SDS011;3721;44.490;11.220;2022-11-15T09:21:35;31.53;;;18.63;;
7361;SDS011;3721;44.490;11.220;2022-11-15T09:24:01;34.77;;;16.83;;
7361;SDS011;3721;44.490;11.220;2022-11-15T09:26:29;31.13;;;17.57;;
7361;SDS011;3721;44.490;11.220;2022-11-15T09:28:54;30.90;;;17.30;;
7361;SDS011;3721;44.490;11.220;2022-11-15T09:31:20;41.53;;;18.53;;
7361;SDS011;3721;44.490;11.220;2022-11-15T09:33:46;42.03;;;19.20;;
7361;SDS011;3721;44.490;11.220;2022-11-15T09:36:12;38.03;;;20.20;;
7361;SDS011;3721;44.490;11.220;2022-11-15T09:38:38;35.00;;;18.30;;
7361;SDS011;3721;44.490;11.220;2022-11-15T09:56:27;37.80;;;22.07;;
7361;SDS011;3721;44.490;11.220;2022-11-15T09:59:00;43.37;;;24.33;;
7361;SDS011;3721;44.490;11.220;2022-11-15T10:04:05;45.97;;;27.00;;
7361;SDS011;3721;44.490;11.220;2022-11-15T10:06:31;46.83;;;24.70;;
7361;SDS011;3721;44.490;11.220;2022-11-15T10:09:03;46.10;;;25.27;;
7361;SDS011;3721;44.490;11.220;2022-11-15T10:11:35;49.40;;;27.23;;
7361;SDS011;3721;44.490;11.220;2022-11-15T10:14:04;43.40;;;26.90;;
7361;SDS011;3721;44.490;11.220;2022-11-15T10:25:23;46.23;;;27.87;;
7361;SDS011;3721;44.490;11.220;2022-11-15T10:28:13;50.97;;;29.70;;
7361;SDS011;3721;44.490;11.220;2022-11-15T10:30:50;53.50;;;30.50;;
7361;SDS011;3721;44.490;11.220;2022-11-15T10:33:34;53.63;;;30.67;;
7361;SDS011;3721;44.490;11.220;2022-11-15T10:41:13;53.87;;;34.20;;
7361;SDS011;3721;44.490;11.220;2022-11-15T10:43:39;63.70;;;36.37;;
7361;SDS011;3721;44.490;11.220;2022-11-15T10:46:22;60.13;;;34.80;;
7361;SDS011;3721;44.490;11.220;2022-11-15T10:48:49;56.57;;;30.97;;
7361;SDS011;3721;44.490;11.220;2022-11-15T10:51:26;53.10;;;30.20;;
7361;SDS011;3721;44.490;11.220;2022-11-15T10:53:57;47.60;;;27.07;;
7361;SDS011;3721;44.490;11.220;2022-11-15T10:56:25;46.80;;;26.50;;
7361;SDS011;3721;44.490;11.220;2022-11-15T10:58:56;44.73;;;25.73;;
7361;SDS011;3721;44.490;11.220;2022-11-15T11:01:23;49.10;;;27.60;;
7361;SDS011;3721;44.490;11.220;2022-11-15T11:04:00;50.80;;;27.33;;
7361;SDS011;3721;44.490;11.220;2022-11-15T11:09:44;46.37;;;25.60;;
7361;SDS011;3721;44.490;11.220;2022-11-15T11:12:10;47.67;;;26.17;;
7361;SDS011;3721;44.490;11.220;2022-11-15T11:14:37;43.67;;;24.73;;
7361;SDS011;3721;44.490;11.220;2022-11-15T11:17:16;53.90;;;28.43;;
7361;SDS011;3721;44.490;11.220;2022-11-15T11:37:02;50.93;;;27.30;;
7361;SDS011;3721;44.490;11.220;2022-11-15T11:39:45;53.33;;;28.20;;
7361;SDS011;3721;44.490;11.220;2022-11-15T11:50:38;52.40;;;27.10;;
7361;SDS011;3721;44.490;11.220;2022-11-15T11:53:11;48.80;;;26.40;;
7361;SDS011;3721;44.490;11.220;2022-11-15T11:56:04;52.97;;;26.70;;
7361;SDS011;3721;44.490;11.220;2022-11-15T11:58:54;48.53;;;26.20;;
7361;SDS011;3721;44.490;11.220;2022-11-15T12:01:26;48.13;;;25.70;;
7361;SDS011;3721;44.490;11.220;2022-11-15T12:04:11;45.93;;;25.63;;
7361;SDS011;3721;44.490;11.220;2022-11-15T12:07:02;50.10;;;26.60;;
7361;SDS011;3721;44.490;11.220;2022-11-15T12:09:58;50.50;;;26.90;;
7361;SDS011;3721;44.490;11.220;2022-11-15T12:12:36;47.47;;;28.07;;
7361;SDS011;3721;44.490;11.220;2022-11-15T12:17:34;53.23;;;27.77;;
7361;SDS011;3721;44.490;11.220;2022-11-15T12:20:14;51.63;;;28.00;;
7361;SDS011;3721;44.490;11.220;2022-11-15T12:22:43;50.00;;;27.17;;
7361;SDS011;3721;44.490;11.220;2022-11-15T12:28:01;54.63;;;29.10;;
7361;SDS011;3721;44.490;11.220;2022-11-15T12:30:51;56.03;;;29.30;;
7361;SDS011;3721;44.490;11.220;2022-11-15T12:33:40;54.90;;;29.67;;
7361;SDS011;3721;44.490;11.220;2022-11-15T12:41:20;48.80;;;26.27;;
7361;SDS011;3721;44.490;11.220;2022-11-15T12:43:50;65.17;;;27.90;;
7361;SDS011;3721;44.490;11.220;2022-11-15T12:59:47;54.50;;;27.00;;
7361;SDS011;3721;44.490;11.220;2022-11-15T13:04:43;54.67;;;28.60;;
7361;SDS011;3721;44.490;11.220;2022-11-15T13:07:09;55.77;;;29.53;;
7361;SDS011;3721;44.490;11.220;2022-11-15T13:13:01;52.90;;;28.87;;
7361;SDS011;3721;44.490;11.220;2022-11-15T13:15:36;47.80;;;26.70;;
7361;SDS011;3721;44.490;11.220;2022-11-15T13:21:03;54.40;;;28.60;;
7361;SDS011;3721;44.490;11.220;2022-11-15T13:24:02;56.27;;;27.03;;
7361;SDS011;3721;44.490;11.220;2022-11-15T13:26:28;53.10;;;27.67;;
7361;SDS011;3721;44.490;11.220;2022-11-15T13:28:54;59.73;;;29.07;;
7361;SDS011;3721;44.490;11.220;2022-11-15T13:31:25;54.13;;;28.30;;
7361;SDS011;3721;44.490;11.220;2022-11-15T13:33:51;57.07;;;29.60;;
7361;SDS011;3721;44.490;11.220;2022-11-15T13:36:30;57.50;;;29.47;;
7361;SDS011;3721;44.490;11.220;2022-11-15T13:39:04;51.40;;;29.73;;
7361;SDS011;3721;44.490;11.220;2022-11-15T13:41:49;57.00;;;30.10;;
7361;SDS011;3721;44.490;11.220;2022-11-15T13:44:22;58.53;;;28.97;;
7361;SDS011;3721;44.490;11.220;2022-11-15T13:49:40;53.73;;;27.13;;
7361;SDS011;3721;44.490;11.220;2022-11-15T13:52:07;54.87;;;28.73;;
7361;SDS011;3721;44.490;11.220;2022-11-15T13:54:42;53.40;;;27.40;;
7361;SDS011;3721;44.490;11.220;2022-11-15T13:59:44;60.43;;;29.13;;
7361;SDS011;3721;44.490;11.220;2022-11-15T14:02:13;53.73;;;28.30;;
7361;SDS011;3721;44.490;11.220;2022-11-15T14:04:55;57.23;;;27.67;;
7361;SDS011;3721;44.490;11.220;2022-11-15T14:07:24;57.13;;;28.80;;
7361;SDS011;3721;44.490;11.220;2022-11-15T14:09:51;56.00;;;29.53;;
7361;SDS011;3721;44.490;11.220;2022-11-15T14:12:28;53.17;;;30.13;;
7361;SDS011;3721;44.490;11.220;2022-11-15T14:14:55;59.80;;;29.80;;
7361;SDS011;3721;44.490;11.220;2022-11-15T14:19:53;55.07;;;26.90;;
7361;SDS011;3721;44.490;11.220;2022-11-15T14:27:40;53.97;;;28.17;;
7361;SDS011;3721;44.490;11.220;2022-11-15T14:30:12;62.43;;;30.10;;
7361;SDS011;3721;44.490;11.220;2022-11-15T14:32:47;55.70;;;28.43;;
7361;SDS011;3721;44.490;11.220;2022-11-15T14:35:18;60.30;;;29.30;;
7361;SDS011;3721;44.490;11.220;2022-11-15T14:37:46;54.83;;;28.57;;
7361;SDS011;3721;44.490;11.220;2022-11-15T14:40:13;62.10;;;29.20;;
7361;SDS011;3721;44.490;11.220;2022-11-15T14:42:44;54.80;;;27.90;;
7361;SDS011;3721;44.490;11.220;2022-11-15T14:45:21;65.27;;;30.20;;
7361;SDS011;3721;44.490;11.220;2022-11-15T14:47:47;60.77;;;28.57;;
7361;SDS011;3721;44.490;11.220;2022-11-15T14:50:14;68.57;;;29.33;;
7361;SDS011;3721;44.490;11.220;2022-11-15T14:52:42;57.57;;;30.07;;
7361;SDS011;3721;44.490;11.220;2022-11-15T14:55:11;61.47;;;29.53;;
7361;SDS011;3721;44.490;11.220;2022-11-15T14:57:45;65.00;;;29.00;;
7361;SDS011;3721;44.490;11.220;2022-11-15T15:00:11;58.90;;;28.63;;
7361;SDS011;3721;44.490;11.220;2022-11-15T15:02:38;65.27;;;32.10;;
7361;SDS011;3721;44.490;11.220;2022-11-15T15:05:13;57.23;;;29.77;;
7361;SDS011;3721;44.490;11.220;2022-11-15T15:07:44;66.50;;;31.93;;
7361;SDS011;3721;44.490;11.220;2022-11-15T15:10:10;64.73;;;31.20;;
7361;SDS011;3721;44.490;11.220;2022-11-15T15:12:37;64.67;;;30.10;;
7361;SDS011;3721;44.490;11.220;2022-11-15T15:15:02;60.03;;;30.07;;
7361;SDS011;3721;44.490;11.220;2022-11-15T15:17:28;68.70;;;28.77;;
7361;SDS011;3721;44.490;11.220;2022-11-15T15:19:54;63.70;;;31.10;;
7361;SDS011;3721;44.490;11.220;2022-11-15T15:22:20;59.60;;;30.30;;
7361;SDS011;3721;44.490;11.220;2022-11-15T15:24:50;60.33;;;29.47;;
7361;SDS011;3721;44.490;11.220;2022-11-15T15:27:16;64.83;;;29.60;;
7361;SDS011;3721;44.490;11.220;2022-11-15T15:29:41;70.37;;;30.60;;
7361;SDS011;3721;44.490;11.220;2022-11-15T15:32:07;61.03;;;28.73;;
7361;SDS011;3721;44.490;11.220;2022-11-15T15:34:34;59.57;;;29.17;;
7361;SDS011;3721;44.490;11.220;2022-11-15T15:37:12;69.97;;;29.17;;
7361;SDS011;3721;44.490;11.220;2022-11-15T15:39:50;73.97;;;31.43;;
7361;SDS011;3721;44.490;11.220;2022-11-15T15:42:17;64.87;;;31.17;;
7361;SDS011;3721;44.490;11.220;2022-11-15T15:44:43;64.20;;;29.70;;
7361;SDS011;3721;44.490;11.220;2022-11-15T15:47:10;51.30;;;27.87;;
7361;SDS011;3721;44.490;11.220;2022-11-15T15:49:38;50.43;;;27.03;;
7361;SDS011;3721;44.490;11.220;2022-11-15T15:52:04;53.27;;;26.10;;
7361;SDS011;3721;44.490;11.220;2022-11-15T15:54:29;57.90;;;27.40;;
7361;SDS011;3721;44.490;11.220;2022-11-15T15:56:55;55.53;;;28.60;;
7361;SDS011;3721;44.490;11.220;2022-11-15T15:59:21;57.10;;;28.13;;
7361;SDS011;3721;44.490;11.220;2022-11-15T16:01:46;53.00;;;27.77;;
7361;SDS011;3721;44.490;11.220;2022-11-15T16:04:12;53.00;;;27.50;;
7361;SDS011;3721;44.490;11.220;2022-11-15T16:06:38;58.30;;;27.70;;
7361;SDS011;3721;44.490;11.220;2022-11-15T16:09:10;57.00;;;28.50;;
7361;SDS011;3721;44.490;11.220;2022-11-15T16:11:41;58.17;;;28.60;;
7361;SDS011;3721;44.490;11.220;2022-11-15T16:14:09;53.17;;;25.50;;
7361;SDS011;3721;44.490;11.220;2022-11-15T16:16:35;50.90;;;26.90;;
7361;SDS011;3721;44.490;11.220;2022-11-15T16:19:01;54.77;;;26.40;;
7361;SDS011;3721;44.490;11.220;2022-11-15T16:21:27;52.87;;;26.43;;
7361;SDS011;3721;44.490;11.220;2022-11-15T16:23:53;54.83;;;26.33;;
7361;SDS011;3721;44.490;11.220;2022-11-15T16:28:52;53.00;;;26.73;;
7361;SDS011;3721;44.490;11.220;2022-11-15T16:31:18;63.17;;;29.30;;
7361;SDS011;3721;44.490;11.220;2022-11-15T16:33:47;68.20;;;29.90;;
7361;SDS011;3721;44.490;11.220;2022-11-15T16:36:22;57.83;;;31.07;;
7361;SDS011;3721;44.490;11.220;2022-11-15T16:38:50;64.03;;;30.13;;
7361;SDS011;3721;44.490;11.220;2022-11-15T16:41:16;68.33;;;31.80;;
7361;SDS011;3721;44.490;11.220;2022-11-15T16:43:43;57.20;;;29.67;;
7361;SDS011;3721;44.490;11.220;2022-11-15T16:46:17;68.63;;;32.20;;
7361;SDS011;3721;44.490;11.220;2022-11-15T16:48:43;75.20;;;32.00;;
7361;SDS011;3721;44.490;11.220;2022-11-15T16:51:09;71.90;;;32.17;;
7361;SDS011;3721;44.490;11.220;2022-11-15T16:53:35;62.03;;;29.30;;
7361;SDS011;3721;44.490;11.220;2022-11-15T16:56:00;72.10;;;31.03;;
7361;SDS011;3721;44.490;11.220;2022-11-15T16:58:26;66.33;;;29.53;;
7361;SDS011;3721;44.490;11.220;2022-11-15T17:00:52;63.43;;;31.17;;